createdAt,value
2023-05-09T08:38:58.833Z,68.94
2023-05-09T08:41:26.995Z,67.45
2023-05-09T08:43:55.366Z,65.57
2023-05-09T08:46:34.420Z,63.75
2023-05-09T08:49:04.860Z,61.91
2023-05-09T08:51:33.048Z,60.16
2023-05-09T08:54:00.857Z,59.81
2023-05-09T08:56:30.871Z,59.43
2023-05-09T08:58:59.214Z,59.19
2023-05-09T09:01:27.965Z,58.10
2023-05-09T09:03:56.350Z,58.33
2023-05-09T09:06:24.215Z,57.44
2023-05-09T09:08:53.973Z,57.09
2023-05-09T09:11:22.309Z,57.71
2023-05-09T09:13:54.348Z,58.22
2023-05-09T09:16:29.342Z,58.62
2023-05-09T09:18:59.053Z,58.64
2023-05-09T09:21:26.768Z,58.66
2023-05-09T09:23:55.995Z,58.20
2023-05-09T09:26:23.489Z,57.51
2023-05-09T09:28:50.898Z,57.15
2023-05-09T09:31:26.647Z,57.88
2023-05-09T09:34:03.230Z,57.43
2023-05-09T09:36:32.631Z,56.93
2023-05-09T09:39:03.144Z,57.65
2023-05-09T09:41:38.376Z,57.97
2023-05-09T09:44:18.206Z,58.09
2023-05-09T09:46:55.120Z,57.87
2023-05-09T09:49:25.251Z,57.52
2023-05-09T09:51:57.862Z,56.44
2023-05-09T09:54:29.175Z,56.59
2023-05-09T09:56:56.591Z,56.65
2023-05-09T09:59:26.321Z,55.75
2023-05-09T10:01:55.983Z,56.26
2023-05-09T10:04:24.849Z,55.56
2023-05-09T10:07:05.020Z,55.10
2023-05-09T10:09:34.881Z,53.75
2023-05-09T10:12:08.024Z,54.11
2023-05-09T10:14:38.938Z,54.65
2023-05-09T10:17:06.876Z,55.42
2023-05-09T10:19:40.694Z,55.54
2023-05-09T10:22:13.257Z,55.20
2023-05-09T10:24:48.118Z,55.62
2023-05-09T10:27:22.874Z,54.43
2023-05-09T10:30:07.150Z,52.19
2023-05-09T10:33:04.558Z,54.52
2023-05-09T10:35:37.741Z,54.95
2023-05-09T10:38:06.874Z,53.90
2023-05-09T10:40:35.344Z,53.54
2023-05-09T10:43:02.629Z,52.27
2023-05-09T10:45:30.332Z,52.28
2023-05-09T10:47:58.401Z,52.53
2023-05-09T10:50:26.705Z,52.24
2023-05-09T10:53:08.016Z,50.58
2023-05-09T10:55:55.919Z,50.37
2023-05-09T10:58:29.410Z,50.10
2023-05-09T11:01:00.802Z,50.46
2023-05-09T11:03:49.733Z,49.64
2023-05-09T11:06:41.842Z,49.32
2023-05-09T11:09:37.762Z,48.07
2023-05-09T11:12:12.799Z,50.47
2023-05-09T11:14:46.759Z,50.94
2023-05-09T11:17:23.198Z,51.43
2023-05-09T11:19:50.571Z,51.83
2023-05-09T11:22:21.355Z,52.11
2023-05-09T11:25:06.909Z,49.79
2023-05-09T11:27:55.013Z,49.85
2023-05-09T11:30:34.949Z,49.20
2023-05-09T11:33:02.605Z,49.04
2023-05-09T11:35:30.248Z,49.94
2023-05-09T11:38:07.934Z,48.57
2023-05-09T11:40:35.622Z,48.94
2023-05-09T11:43:03.211Z,45.63
2023-05-09T11:45:33.415Z,44.68
2023-05-09T11:48:01.330Z,42.24
2023-05-09T11:50:29.393Z,42.80
2023-05-09T11:52:56.878Z,43.80
2023-05-09T11:55:24.610Z,43.48
2023-05-09T11:57:54.640Z,42.90
2023-05-09T12:00:25.786Z,42.10
2023-05-09T12:02:54.070Z,42.88
2023-05-09T12:05:23.576Z,43.19
2023-05-09T12:07:51.108Z,43.19
2023-05-09T12:10:23.488Z,43.07
2023-05-09T12:12:53.791Z,44.18
2023-05-09T12:15:21.567Z,44.88
2023-05-09T12:18:05.992Z,45.73
2023-05-09T12:20:49.454Z,45.43
2023-05-09T12:23:18.462Z,45.88
2023-05-09T12:25:56.864Z,46.25
2023-05-09T12:28:26.489Z,45.89
2023-05-09T12:30:55.169Z,45.90
2023-05-09T12:33:23.024Z,46.67
2023-05-09T12:36:09.890Z,46.92
2023-05-09T12:38:38.254Z,48.47
2023-05-09T12:41:22.502Z,48.61
2023-05-09T12:43:59.024Z,49.02
2023-05-09T12:46:26.564Z,49.96
2023-05-09T12:48:54.585Z,50.05
2023-05-09T12:51:22.713Z,49.43
2023-05-09T12:53:50.713Z,50.45
2023-05-09T12:56:20.795Z,51.38
2023-05-09T12:58:54.710Z,52.93
2023-05-09T13:01:27.932Z,53.87
2023-05-09T13:04:06.678Z,53.75
2023-05-09T13:06:35.092Z,52.31
2023-05-09T13:09:04.706Z,52.46
2023-05-09T13:11:32.169Z,51.11
2023-05-09T13:13:59.630Z,49.93
2023-05-09T13:16:27.078Z,50.09
2023-05-09T13:18:54.415Z,50.31
2023-05-09T13:21:24.050Z,50.24
2023-05-09T13:23:51.340Z,50.62
2023-05-09T13:26:18.681Z,51.18
2023-05-09T13:28:46.245Z,51.10
2023-05-09T13:31:13.613Z,50.64
2023-05-09T13:33:41.222Z,51.14
2023-05-09T13:36:08.610Z,50.15
2023-05-09T13:38:36.541Z,50.49
2023-05-09T13:41:04.932Z,51.18
2023-05-09T13:43:32.301Z,50.87
2023-05-09T13:45:59.646Z,51.70
2023-05-09T13:48:26.947Z,52.54
2023-05-09T13:50:54.292Z,52.39
2023-05-09T13:53:21.562Z,51.60
2023-05-09T13:55:49.497Z,52.04
2023-05-09T13:58:20.605Z,51.66
2023-05-09T14:00:51.988Z,52.00
2023-05-09T14:03:30.655Z,52.29
2023-05-09T14:05:58.988Z,51.16
2023-05-09T14:08:26.660Z,51.09
2023-05-09T14:10:53.988Z,51.43
2023-05-09T14:13:21.418Z,51.78
2023-05-09T14:15:48.719Z,51.56
2023-05-09T14:18:19.159Z,50.71
2023-05-09T14:20:51.096Z,51.05
2023-05-09T14:23:18.900Z,50.86
2023-05-09T14:25:54.307Z,51.18
2023-05-09T14:28:21.820Z,50.78
2023-05-09T14:30:49.221Z,51.23
2023-05-09T14:33:16.694Z,51.37
2023-05-09T14:35:44.065Z,51.25
2023-05-09T14:38:11.455Z,51.48
2023-05-09T14:40:38.978Z,51.58
2023-05-09T14:43:06.804Z,51.24
2023-05-09T14:45:34.361Z,51.46
2023-05-09T14:48:02.580Z,51.90
2023-05-09T14:50:30.315Z,51.95
2023-05-09T14:52:57.966Z,51.51
2023-05-09T14:55:25.423Z,51.55
2023-05-09T14:57:52.740Z,52.19
2023-05-09T15:00:22.267Z,51.75
2023-05-09T15:02:50.550Z,51.69
2023-05-09T15:05:18.374Z,52.97
2023-05-09T15:07:46.109Z,53.73
2023-05-09T15:10:13.825Z,54.38
2023-05-09T15:12:41.630Z,55.23
2023-05-09T15:15:27.656Z,54.71
2023-05-09T15:17:54.987Z,54.96
2023-05-09T15:20:22.281Z,55.26
2023-05-09T15:22:50.511Z,55.58
2023-05-09T15:25:18.468Z,55.86
2023-05-09T15:27:45.923Z,55.82
2023-05-09T15:30:14.727Z,55.36
2023-05-09T15:32:42.508Z,56.34
2023-05-09T15:35:10.263Z,56.48
2023-05-09T15:37:37.882Z,56.94
2023-05-09T15:40:06.736Z,56.35
2023-05-09T15:42:34.133Z,56.51
2023-05-09T15:45:01.749Z,57.03
2023-05-09T15:47:29.126Z,57.35
2023-05-09T15:49:56.563Z,57.48
2023-05-09T15:52:23.777Z,57.46
2023-05-09T15:54:51.442Z,57.83
2023-05-09T15:57:18.774Z,58.34
2023-05-09T15:59:46.237Z,58.40
2023-05-09T16:02:13.541Z,58.97
2023-05-09T16:04:42.762Z,59.31
2023-05-09T16:07:11.403Z,59.61
2023-05-09T16:09:39.533Z,59.77
2023-05-09T16:12:09.769Z,59.71
2023-05-09T16:14:37.017Z,59.66
2023-05-09T16:17:04.673Z,59.85
2023-05-09T16:19:33.217Z,59.83
2023-05-09T16:22:02.285Z,59.58
2023-05-09T16:24:30.028Z,59.91
2023-05-09T16:26:57.448Z,59.76
2023-05-09T16:29:24.741Z,59.86
2023-05-09T16:31:52.090Z,60.30
2023-05-09T16:34:19.473Z,60.44
2023-05-09T16:36:46.792Z,60.36
2023-05-09T16:39:14.284Z,60.55
2023-05-09T16:41:41.558Z,60.24
2023-05-09T16:44:08.991Z,60.38
2023-05-09T16:46:36.932Z,60.46
2023-05-09T16:49:07.401Z,60.66
2023-05-09T16:51:34.785Z,60.47
2023-05-09T16:54:02.466Z,60.82
2023-05-09T16:56:30.007Z,60.80
2023-05-09T16:58:57.895Z,60.66
2023-05-09T17:01:25.877Z,60.73
2023-05-09T17:03:53.661Z,60.61
2023-05-09T17:06:21.359Z,60.60
2023-05-09T17:08:49.033Z,60.29
2023-05-09T17:11:16.988Z,60.17
2023-05-09T17:13:44.934Z,59.82
2023-05-09T17:16:18.457Z,59.95
2023-05-09T17:18:49.824Z,59.93
2023-05-09T17:21:17.465Z,59.96
2023-05-09T17:23:45.181Z,60.05
2023-05-09T17:26:12.447Z,60.21
2023-05-09T17:28:39.724Z,60.20
2023-05-09T17:31:07.460Z,59.98
2023-05-09T17:33:34.923Z,60.37
2023-05-09T17:36:02.237Z,60.19
2023-05-09T17:38:29.839Z,60.17
2023-05-09T17:40:57.232Z,60.01
2023-05-09T17:43:24.652Z,60.21
2023-05-09T17:45:52.555Z,60.57
2023-05-09T17:48:20.217Z,60.75
2023-05-09T17:50:47.778Z,60.95
2023-05-09T17:53:15.136Z,60.80
2023-05-09T17:55:44.505Z,60.64
2023-05-09T17:58:11.805Z,60.45
2023-05-09T18:00:39.123Z,60.66
2023-05-09T18:03:06.542Z,60.43
2023-05-09T18:05:34.266Z,60.42
2023-05-09T18:08:05.250Z,60.25
2023-05-09T18:10:32.768Z,60.31
2023-05-09T18:13:01.005Z,60.24
2023-05-09T18:15:28.269Z,60.50
2023-05-09T18:17:55.625Z,60.33
2023-05-09T18:20:23.021Z,60.28
2023-05-09T18:22:50.488Z,60.72
2023-05-09T18:25:19.580Z,60.89
2023-05-09T18:27:47.143Z,60.91
2023-05-09T18:30:14.923Z,61.32
2023-05-09T18:32:42.872Z,61.21
2023-05-09T18:35:10.564Z,61.00
2023-05-09T18:37:38.016Z,61.21
2023-05-09T18:40:06.602Z,61.17
2023-05-09T18:42:34.219Z,61.10
2023-05-09T18:45:01.874Z,60.83
2023-05-09T18:47:29.584Z,60.95
2023-05-09T18:49:56.993Z,60.84
2023-05-09T18:52:24.252Z,61.06
2023-05-09T18:54:52.843Z,60.91
2023-05-09T18:57:21.103Z,60.90
2023-05-09T18:59:48.495Z,60.69
2023-05-09T19:02:15.831Z,60.36
2023-05-09T19:04:43.277Z,60.23
2023-05-09T19:07:10.868Z,60.58
2023-05-09T19:09:38.312Z,60.75
2023-05-09T19:12:06.300Z,61.08
2023-05-09T19:14:33.623Z,61.30
2023-05-09T19:17:01.436Z,61.23
2023-05-09T19:19:28.717Z,61.11
2023-05-09T19:21:56.162Z,60.94
2023-05-09T19:24:23.584Z,61.02
2023-05-09T19:26:50.851Z,60.86
2023-05-09T19:29:18.193Z,60.80
2023-05-09T19:31:45.850Z,60.74
2023-05-09T19:34:13.276Z,61.03
2023-05-09T19:36:40.812Z,61.22
2023-05-09T19:39:08.362Z,61.27
2023-05-09T19:41:35.796Z,61.04
2023-05-09T19:44:03.255Z,61.15
2023-05-09T19:46:31.029Z,61.79
2023-05-09T19:48:58.379Z,61.50
2023-05-09T19:51:25.891Z,61.42
2023-05-09T19:53:53.388Z,61.71
2023-05-09T19:56:20.710Z,62.00
2023-05-09T19:58:48.020Z,61.88
2023-05-09T20:01:18.238Z,61.92
2023-05-09T20:03:45.681Z,61.88
2023-05-09T20:06:16.726Z,61.79
2023-05-09T20:08:44.733Z,61.70
2023-05-09T20:11:15.728Z,61.88
2023-05-09T20:13:43.139Z,61.98
2023-05-09T20:16:11.235Z,62.04
2023-05-09T20:18:38.600Z,61.94
2023-05-09T20:21:06.276Z,62.00
2023-05-09T20:23:33.545Z,61.88
2023-05-09T20:26:01.327Z,62.01
2023-05-09T20:28:28.726Z,61.77
2023-05-09T20:30:56.719Z,61.41
2023-05-09T20:33:23.949Z,61.80
2023-05-09T20:35:51.198Z,61.83
2023-05-09T20:38:18.737Z,61.65
2023-05-09T20:40:46.536Z,61.41
2023-05-09T20:43:13.843Z,61.44
2023-05-09T20:45:41.309Z,61.72
2023-05-09T20:48:08.984Z,61.46
2023-05-09T20:50:36.459Z,61.08
2023-05-09T20:53:03.979Z,60.81
2023-05-09T20:55:31.307Z,61.03
2023-05-09T20:57:58.622Z,61.05
2023-05-09T21:00:25.965Z,61.24
2023-05-09T21:02:54.576Z,61.16
2023-05-09T21:05:22.871Z,61.34
2023-05-09T21:07:50.642Z,61.11
2023-05-09T21:10:18.270Z,60.21
2023-05-09T21:12:45.714Z,60.15
2023-05-09T21:15:13.310Z,59.88
2023-05-09T21:17:40.747Z,59.81
2023-05-09T21:20:09.003Z,59.58
2023-05-09T21:22:36.327Z,59.95
2023-05-09T21:25:03.748Z,59.76
2023-05-09T21:27:31.645Z,59.64
2023-05-09T21:29:59.003Z,59.22
2023-05-09T21:32:26.352Z,59.11
2023-05-09T21:34:53.675Z,58.97
2023-05-09T21:37:21.145Z,58.93
2023-05-09T21:39:48.497Z,58.99
2023-05-09T21:42:16.707Z,58.72
2023-05-09T21:44:44.525Z,58.58
2023-05-09T21:47:12.033Z,58.39
2023-05-09T21:49:39.447Z,58.49
2023-05-09T21:52:06.768Z,58.49
2023-05-09T21:54:34.110Z,58.56
2023-05-09T21:57:01.386Z,58.36
2023-05-09T21:59:28.720Z,58.37
2023-05-09T22:01:55.979Z,58.60
2023-05-09T22:04:23.252Z,58.68
2023-05-09T22:06:50.525Z,58.69
2023-05-09T22:09:17.964Z,58.67
2023-05-09T22:11:45.244Z,58.41
2023-05-09T22:14:12.559Z,58.55
2023-05-09T22:16:39.891Z,58.44
2023-05-09T22:19:07.252Z,58.34
2023-05-09T22:21:34.563Z,58.61
2023-05-09T22:24:02.160Z,58.65
2023-05-09T22:26:29.383Z,58.55
2023-05-09T22:28:56.665Z,58.36
2023-05-09T22:31:23.958Z,58.01
2023-05-09T22:33:51.325Z,58.12
2023-05-09T22:36:18.703Z,58.26
2023-05-09T22:38:46.130Z,58.28
2023-05-09T22:41:14.468Z,58.51
2023-05-09T22:43:41.968Z,58.43
2023-05-09T22:46:09.457Z,58.47
2023-05-09T22:48:36.995Z,58.66
2023-05-09T22:51:04.466Z,58.85
2023-05-09T22:53:31.862Z,58.30
2023-05-09T22:55:59.116Z,58.54
2023-05-09T22:58:26.415Z,58.65
2023-05-09T23:00:53.853Z,58.61
2023-05-09T23:03:21.283Z,59.10
2023-05-09T23:05:48.768Z,59.26
2023-05-09T23:08:16.257Z,59.39
2023-05-09T23:10:44.091Z,59.33
2023-05-09T23:13:11.412Z,59.27
2023-05-09T23:15:38.687Z,59.06
2023-05-09T23:18:06.599Z,58.92
2023-05-09T23:20:33.852Z,59.11
2023-05-09T23:23:01.261Z,59.15
2023-05-09T23:25:28.695Z,59.60
2023-05-09T23:27:56.033Z,59.41
2023-05-09T23:30:23.624Z,59.08
2023-05-09T23:32:51.287Z,59.25
2023-05-09T23:35:18.633Z,59.50
2023-05-09T23:37:45.984Z,59.48
2023-05-09T23:40:14.156Z,59.29
2023-05-09T23:42:41.624Z,59.00
2023-05-09T23:45:09.785Z,59.03
2023-05-09T23:47:37.184Z,58.85
2023-05-09T23:50:05.038Z,59.00
2023-05-09T23:52:32.511Z,58.87
2023-05-09T23:54:59.785Z,58.76
2023-05-09T23:57:27.033Z,58.88
2023-05-09T23:59:54.324Z,58.87
